Time;durP1;ratioP1;P1;durP2;ratioP2;P2;SDS_P1;SDS_P2;PMS_P1;PMS_P2;Temp;Humidity;BMP_temperature;BMP_pressure;BME280_temperature;BME280_humidity;BME280_pressure;Samples;Min_cycle;Max_cycle;Signal;HPM_P1;HPM_P2
2022/06/06 00:01:21;;;;;;;49.67;23.88;;;15.40;94.90;;;;;;4780026;30;20066;-78
2022/06/06 00:03:52;;;;;;;52.88;24.58;;;15.30;94.90;;;;;;4802427;29;20563;-79
2022/06/06 00:06:20;;;;;;;55.78;27.13;;;15.30;94.90;;;;;;4803083;29;20555;-78
2022/06/06 00:08:48;;;;;;;48.55;24.73;;;15.20;94.90;;;;;;4804662;29;20044;-79
2022/06/06 00:11:16;;;;;;;52.50;25.90;;;15.10;94.90;;;;;;4802899;29;20039;-79
2022/06/06 00:13:45;;;;;;;52.22;25.40;;;15.10;95.00;;;;;;4790152;29;20111;-79
2022/06/06 00:16:13;;;;;;;44.92;22.92;;;15.10;95.00;;;;;;4789139;30;20043;-79
2022/06/06 00:18:44;;;;;;;40.15;22.75;;;15.00;95.00;;;;;;4786645;29;20150;-79
2022/06/06 00:21:11;;;;;;;41.92;22.10;;;15.00;95.00;;;;;;4789094;30;20043;-79
2022/06/06 00:23:39;;;;;;;49.72;25.60;;;15.00;95.00;;;;;;4787668;30;20100;-79
2022/06/06 00:26:15;;;;;;;45.88;23.30;;;15.00;95.00;;;;;;4801486;29;20130;-79
2022/06/06 00:28:44;;;;;;;46.40;23.55;;;15.00;95.00;;;;;;4802874;29;20055;-79
2022/06/06 00:36:44;;;;;;;38.75;20.50;;;14.90;95.00;;;;;;4787756;29;20139;-78
2022/06/06 00:39:15;;;;;;;41.33;21.52;;;14.90;95.00;;;;;;4793831;29;20047;-78
2022/06/06 00:41:45;;;;;;;42.78;22.85;;;14.90;95.00;;;;;;4796194;29;20058;-79
2022/06/06 00:44:22;;;;;;;37.47;21.10;;;14.90;95.00;;;;;;4776563;29;20096;-79
2022/06/06 00:47:24;;;;;;;35.97;19.60;;;14.90;95.00;;;;;;4791653;29;20083;-79
2022/06/06 00:49:56;;;;;;;37.85;20.30;;;14.90;94.90;;;;;;4772174;29;20089;-79
2022/06/06 00:52:30;;;;;;;34.20;18.55;;;14.80;95.00;;;;;;4771797;30;20059;-79
2022/06/06 00:55:14;;;;;;;31.60;17.95;;;14.80;95.00;;;;;;4790481;29;20551;-79
2022/06/06 00:58:07;;;;;;;30.30;15.88;;;14.80;94.90;;;;;;4794005;29;20102;-79
2022/06/06 01:00:34;;;;;;;27.27;15.85;;;14.90;94.90;;;;;;4776289;30;20414;-79
2022/06/06 01:03:04;;;;;;;28.17;14.73;;;14.90;94.90;;;;;;4788496;29;20116;-78
2022/06/06 01:05:32;;;;;;;24.00;14.05;;;14.90;94.80;;;;;;4787024;30;20461;-79
2022/06/06 01:07:59;;;;;;;27.90;13.65;;;14.90;94.80;;;;;;4788302;30;20090;-78
2022/06/06 01:10:26;;;;;;;26.85;13.20;;;14.90;94.80;;;;;;4790264;29;20078;-79
2022/06/06 01:12:55;;;;;;;25.00;12.70;;;14.90;94.70;;;;;;4787701;29;20047;-78
2022/06/06 01:15:27;;;;;;;26.60;12.85;;;15.00;94.70;;;;;;4792641;29;20406;-79
2022/06/06 01:18:30;;;;;;;23.77;11.73;;;15.00;94.70;;;;;;4789263;29;20082;-78
2022/06/06 01:21:19;;;;;;;23.30;11.88;;;15.00;94.60;;;;;;4786041;29;20574;-78
2022/06/06 01:24:09;;;;;;;22.30;11.73;;;15.00;94.60;;;;;;4805574;29;20468;-78
2022/06/06 01:26:45;;;;;;;23.23;11.32;;;15.00;94.60;;;;;;4812583;29;20108;-78
2022/06/06 01:29:21;;;;;;;20.90;10.38;;;15.00;94.50;;;;;;4787825;30;20051;-78
2022/06/06 01:32:10;;;;;;;23.40;11.35;;;15.10;94.50;;;;;;4786651;29;20083;-79
2022/06/06 01:34:41;;;;;;;23.60;12.30;;;15.10;94.40;;;;;;4804123;29;20074;-79
2022/06/06 01:37:34;;;;;;;22.95;11.63;;;15.10;94.40;;;;;;4795187;29;20399;-79
2022/06/06 01:40:05;;;;;;;20.88;10.35;;;15.10;94.40;;;;;;4794771;29;20047;-79
2022/06/06 01:42:44;;;;;;;21.85;11.82;;;15.10;94.70;;;;;;4773883;30;20058;-79
2022/06/06 01:45:17;;;;;;;24.10;11.45;;;15.00;94.40;;;;;;4801307;29;20088;-79
2022/06/06 01:47:56;;;;;;;17.50;9.45;;;15.00;94.40;;;;;;4801193;29;20051;-79
2022/06/06 01:50:25;;;;;;;22.05;11.52;;;15.00;94.40;;;;;;4789630;29;20056;-79
2022/06/06 01:52:56;;;;;;;20.00;11.18;;;15.00;94.50;;;;;;4771404;30;20105;-78
2022/06/06 01:55:30;;;;;;;23.98;11.48;;;14.90;94.50;;;;;;4774895;29;20081;-79
2022/06/06 01:58:01;;;;;;;20.58;10.57;;;14.90;94.50;;;;;;4792851;29;20055;-79
2022/06/06 02:00:30;;;;;;;21.98;11.15;;;14.90;94.60;;;;;;4771721;30;20062;-79
2022/06/06 02:02:58;;;;;;;24.63;12.32;;;14.90;94.60;;;;;;4771699;30;20465;-79
2022/06/06 02:05:26;;;;;;;21.45;11.27;;;14.90;94.70;;;;;;4801355;29;20486;-78
2022/06/06 02:07:54;;;;;;;21.92;12.07;;;14.90;94.70;;;;;;4773237;30;20051;-78
2022/06/06 02:10:21;;;;;;;24.33;11.05;;;14.90;94.70;;;;;;4785883;29;20054;-79
2022/06/06 02:12:51;;;;;;;23.33;10.93;;;14.90;94.70;;;;;;4781067;29;20418;-79
2022/06/06 02:15:22;;;;;;;24.65;12.23;;;14.90;94.70;;;;;;4791360;29;20043;-79
2022/06/06 02:17:51;;;;;;;23.88;11.27;;;14.90;94.60;;;;;;4805806;29;20541;-79
2022/06/06 02:20:22;;;;;;;19.48;10.32;;;14.90;94.60;;;;;;4805653;29;20093;-79
2022/06/06 02:22:49;;;;;;;22.27;11.05;;;14.90;94.60;;;;;;4778108;29;20471;-79
2022/06/06 02:25:16;;;;;;;19.05;9.50;;;14.90;94.60;;;;;;4806809;29;20055;-80
2022/06/06 02:27:45;;;;;;;18.80;9.35;;;14.90;94.50;;;;;;4786179;30;20047;-79
2022/06/06 02:30:18;;;;;;;17.15;7.90;;;15.00;94.50;;;;;;4785972;30;20089;-79
2022/06/06 02:32:45;;;;;;;19.67;9.45;;;15.00;94.50;;;;;;4792600;29;20102;-79
2022/06/06 02:35:17;;;;;;;25.92;9.38;;;15.00;94.40;;;;;;4799229;29;20471;-79
2022/06/06 02:37:46;;;;;;;16.95;7.90;;;15.10;94.40;;;;;;4772903;30;20052;-79
2022/06/06 02:40:19;;;;;;;16.70;8.18;;;15.10;94.40;;;;;;4775514;30;20426;-79
2022/06/06 02:42:46;;;;;;;21.23;8.95;;;15.20;94.40;;;;;;4796661;29;20688;-80
2022/06/06 02:45:16;;;;;;;18.27;9.20;;;15.20;94.30;;;;;;4790704;30;20066;-80
2022/06/06 02:47:46;;;;;;;17.83;8.93;;;15.20;94.30;;;;;;4805045;29;20052;-79
2022/06/06 02:50:16;;;;;;;25.15;12.35;;;15.30;94.30;;;;;;4791039;29;20054;-80
2022/06/06 02:52:43;;;;;;;22.67;11.27;;;15.20;94.20;;;;;;4774584;30;20112;-79
2022/06/06 02:55:12;;;;;;;25.70;12.23;;;15.30;94.20;;;;;;4774771;30;20506;-79
2022/06/06 02:57:43;;;;;;;23.40;11.93;;;15.30;94.20;;;;;;4789357;30;20421;-79
2022/06/06 03:00:17;;;;;;;25.13;12.90;;;15.30;94.20;;;;;;4788740;30;20062;-80
2022/06/06 03:02:45;;;;;;;26.05;12.20;;;15.30;94.20;;;;;;4803763;29;20104;-80
2022/06/06 03:05:13;;;;;;;24.23;11.75;;;15.30;94.20;;;;;;4790676;29;20473;-79
2022/06/06 03:07:46;;;;;;;21.23;10.35;;;15.30;94.40;;;;;;4799242;29;20055;-79
2022/06/06 03:10:39;;;;;;;24.05;11.50;;;15.30;94.10;;;;;;4803916;29;20502;-79
2022/06/06 03:13:18;;;;;;;21.80;10.32;;;15.40;94.10;;;;;;4798315;29;20460;-76
2022/06/06 03:22:49;;;;;;;23.55;10.55;;;15.30;94.00;;;;;;4774719;29;20059;-75
2022/06/06 03:25:36;;;;;;;24.65;10.68;;;15.30;94.00;;;;;;4780077;29;20066;-75
2022/06/06 03:28:18;;;;;;;21.08;10.23;;;15.30;94.00;;;;;;4802790;29;20043;-75
2022/06/06 03:30:54;;;;;;;18.08;8.18;;;15.40;94.10;;;;;;4806396;29;20411;-76
2022/06/06 03:33:44;;;;;;;19.17;8.52;;;15.30;94.00;;;;;;4800557;29;20100;-76
2022/06/06 03:36:58;;;;;;;18.25;8.55;;;15.50;93.90;;;;;;4778598;29;20104;-75
2022/06/06 03:39:52;;;;;;;17.23;7.93;;;15.50;93.90;;;;;;4769502;30;20055;-75
2022/06/06 03:42:30;;;;;;;26.08;10.10;;;15.50;94.20;;;;;;4799399;29;20058;-75
2022/06/06 03:45:30;;;;;;;23.38;11.57;;;15.50;93.90;;;;;;4787648;29;20127;-75
2022/06/06 03:48:19;;;;;;;20.17;10.38;;;15.50;93.90;;;;;;4784220;29;20051;-74
2022/06/06 03:51:13;;;;;;;27.17;11.65;;;15.50;93.90;;;;;;4773313;29;20055;-74
2022/06/06 03:53:56;;;;;;;22.38;10.73;;;15.50;93.90;;;;;;4790297;29;20506;-74
2022/06/06 03:56:47;;;;;;;25.60;12.65;;;15.50;93.80;;;;;;4791877;29;20798;-74
2022/06/06 03:59:15;;;;;;;21.02;10.00;;;15.50;93.90;;;;;;4787569;29;20128;-75
2022/06/06 04:01:42;;;;;;;18.48;9.30;;;15.50;93.90;;;;;;4790940;29;20058;-75
2022/06/06 04:04:10;;;;;;;22.58;11.68;;;15.50;93.90;;;;;;4787315;29;20141;-74
2022/06/06 04:06:37;;;;;;;22.83;12.02;;;15.50;93.90;;;;;;4772587;29;20116;-75
2022/06/06 04:09:05;;;;;;;24.65;12.10;;;15.50;93.90;;;;;;4772352;30;20078;-75
2022/06/06 04:11:55;;;;;;;23.75;10.85;;;15.50;93.90;;;;;;4784325;29;20047;-75
2022/06/06 04:14:44;;;;;;;24.33;10.85;;;15.50;93.80;;;;;;4776842;29;20039;-75
2022/06/06 04:18:01;;;;;;;21.38;10.82;;;15.50;93.80;;;;;;4786622;29;20055;-75
2022/06/06 04:20:35;;;;;;;18.85;8.90;;;15.50;93.80;;;;;;4758007;30;20062;-75
2022/06/06 04:23:17;;;;;;;21.63;10.45;;;15.50;93.80;;;;;;4775354;29;20570;-78
2022/06/06 04:26:07;;;;;;;25.98;13.15;;;15.50;93.80;;;;;;4805249;29;20051;-78
2022/06/06 04:28:57;;;;;;;21.42;10.43;;;15.50;93.80;;;;;;4779066;30;20096;-78
2022/06/06 04:32:06;;;;;;;20.10;10.57;;;15.50;93.90;;;;;;4788832;30;20066;-78
2022/06/06 04:35:06;;;;;;;21.60;11.00;;;15.50;93.80;;;;;;4764132;30;20054;-78
2022/06/06 04:37:43;;;;;;;29.35;15.75;;;15.50;93.80;;;;;;4772732;30;20059;-78
2022/06/06 04:40:20;;;;;;;29.20;14.00;;;15.50;93.90;;;;;;4798925;29;20063;-80
2022/06/06 04:42:50;;;;;;;27.73;14.70;;;15.50;93.80;;;;;;4802711;29;20055;-77
2022/06/06 04:45:29;;;;;;;29.60;15.07;;;15.50;93.80;;;;;;4787327;29;20478;-79
2022/06/06 04:47:58;;;;;;;29.73;17.25;;;15.40;93.80;;;;;;4787301;29;20059;-78
2022/06/06 04:50:25;;;;;;;31.30;16.45;;;15.40;93.80;;;;;;4787237;30;20044;-80
2022/06/06 04:52:56;;;;;;;29.48;16.20;;;15.40;93.80;;;;;;4788563;29;20138;-78
2022/06/06 04:55:25;;;;;;;33.97;18.70;;;15.40;93.70;;;;;;4772169;29;20051;-79
2022/06/06 04:57:55;;;;;;;30.70;16.85;;;15.40;93.70;;;;;;4786188;29;20066;-80
2022/06/06 05:00:24;;;;;;;29.90;17.08;;;15.40;93.60;;;;;;4784457;30;20054;-79
2022/06/06 05:02:52;;;;;;;30.85;17.08;;;15.40;93.50;;;;;;4788252;29;20058;-78
2022/06/06 05:05:21;;;;;;;31.63;16.23;;;15.40;93.40;;;;;;4772119;30;20499;-79
2022/06/06 05:08:16;;;;;;;25.75;15.30;;;15.40;93.40;;;;;;4802081;29;20137;-78
2022/06/06 05:11:06;;;;;;;26.60;15.48;;;15.40;93.40;;;;;;4775030;29;20113;-79
2022/06/06 05:14:06;;;;;;;27.85;15.18;;;15.40;93.30;;;;;;4786975;29;20059;-79
2022/06/06 05:17:02;;;;;;;23.13;13.88;;;15.40;93.20;;;;;;4781264;30;20051;-79
2022/06/06 05:19:41;;;;;;;26.77;16.10;;;15.40;93.10;;;;;;4795590;29;20055;-79
2022/06/06 05:22:14;;;;;;;32.40;18.88;;;15.40;93.10;;;;;;4798244;29;20055;-79
2022/06/06 05:24:59;;;;;;;32.70;18.90;;;15.40;93.00;;;;;;4788214;30;20047;-79
2022/06/06 05:27:51;;;;;;;27.88;17.38;;;15.30;92.90;;;;;;4787958;30;20046;-78
2022/06/06 05:30:31;;;;;;;30.30;16.98;;;15.30;92.80;;;;;;4777383;30;20506;-79
2022/06/06 05:33:11;;;;;;;26.15;16.45;;;15.40;92.90;;;;;;4786749;30;20093;-80
2022/06/06 05:36:06;;;;;;;27.75;15.40;;;15.40;92.70;;;;;;4771902;30;20181;-79
2022/06/06 05:38:42;;;;;;;26.48;15.13;;;15.50;92.70;;;;;;4790180;29;20059;-79
2022/06/06 05:41:33;;;;;;;24.15;13.75;;;15.50;92.60;;;;;;4802135;29;20058;-79
2022/06/06 05:44:17;;;;;;;24.45;15.02;;;15.50;92.50;;;;;;4795461;29;20063;-80
2022/06/06 05:46:56;;;;;;;25.23;15.60;;;15.50;92.30;;;;;;4801390;29;20118;-79
2022/06/06 05:49:34;;;;;;;23.02;13.70;;;15.50;92.20;;;;;;4780913;29;20049;-80
2022/06/06 05:52:10;;;;;;;23.30;14.07;;;15.60;92.10;;;;;;4789095;29;20831;-78
2022/06/06 05:54:49;;;;;;;21.35;13.02;;;15.60;92.00;;;;;;4787767;30;20047;-79
2022/06/06 05:57:28;;;;;;;21.63;13.35;;;15.70;91.90;;;;;;4780804;29;20056;-79
2022/06/06 06:00:00;;;;;;;19.98;12.68;;;15.70;91.70;;;;;;4800603;29;20043;-79
2022/06/06 06:02:49;;;;;;;17.48;11.13;;;15.70;91.50;;;;;;4802778;29;20047;-79
2022/06/06 06:05:31;;;;;;;15.50;9.88;;;15.60;91.50;;;;;;4785875;30;20047;-79
2022/06/06 06:08:26;;;;;;;17.00;10.35;;;15.60;91.50;;;;;;4786071;29;20107;-79
2022/06/06 06:11:37;;;;;;;13.75;9.48;;;15.60;91.30;;;;;;4790029;29;20040;-79
2022/06/06 06:14:35;;;;;;;10.50;6.80;;;15.70;91.30;;;;;;4771059;30;20047;-80
2022/06/06 06:17:03;;;;;;;13.05;8.35;;;15.80;91.30;;;;;;4810003;29;20566;-79
2022/06/06 06:19:40;;;;;;;14.20;8.57;;;15.90;90.70;;;;;;4791149;29;20112;-79
2022/06/06 06:22:09;;;;;;;12.65;8.40;;;15.90;90.50;;;;;;4804662;29;20499;-79
2022/06/06 06:24:40;;;;;;;12.35;7.40;;;15.80;90.40;;;;;;4789825;29;20066;-79
2022/06/06 06:27:08;;;;;;;11.07;7.82;;;15.80;90.60;;;;;;4775086;30;20047;-79
2022/06/06 06:29:35;;;;;;;14.23;8.23;;;16.00;90.50;;;;;;4789542;30;20070;-79
2022/06/06 06:32:19;;;;;;;15.65;8.30;;;16.10;90.20;;;;;;4774750;30;20075;-79
2022/06/06 06:35:01;;;;;;;11.30;7.32;;;16.20;89.90;;;;;;4802952;29;20059;-79
2022/06/06 06:37:40;;;;;;;13.68;7.72;;;16.30;90.00;;;;;;4790936;30;20071;-80
2022/06/06 06:40:35;;;;;;;10.15;6.20;;;16.40;89.40;;;;;;4792100;29;20055;-79
2022/06/06 06:43:31;;;;;;;10.80;6.60;;;16.20;89.30;;;;;;4787395;29;20446;-79
2022/06/06 06:46:01;;;;;;;9.23;6.05;;;16.20;89.30;;;;;;4775729;30;20475;-79
2022/06/06 06:48:42;;;;;;;11.25;6.75;;;16.30;89.50;;;;;;4773622;30;20426;-79
2022/06/06 06:51:47;;;;;;;9.43;7.00;;;16.40;89.20;;;;;;4800565;29;20051;-79
2022/06/06 06:54:27;;;;;;;9.43;5.45;;;16.40;88.70;;;;;;4766145;30;20056;-81
2022/06/06 06:57:31;;;;;;;8.27;5.10;;;16.50;89.10;;;;;;4789258;30;20052;-81
2022/06/06 07:00:13;;;;;;;7.28;4.45;;;16.70;88.90;;;;;;4804165;29;20055;-76
2022/06/06 07:09:19;;;;;;;6.88;4.00;;;17.00;88.00;;;;;;4789660;29;20380;-76
2022/06/06 07:12:08;;;;;;;7.60;4.35;;;17.20;87.60;;;;;;4792136;29;20051;-76
2022/06/06 07:15:20;;;;;;;6.82;4.50;;;17.30;86.70;;;;;;4794751;29;20051;-75
2022/06/06 07:17:52;;;;;;;5.80;4.00;;;17.30;86.60;;;;;;4763183;30;20051;-80
2022/06/06 07:20:20;;;;;;;7.05;3.70;;;17.30;86.80;;;;;;4789166;29;20119;-79
2022/06/06 07:23:02;;;;;;;5.82;3.80;;;17.40;86.60;;;;;;4804554;29;20078;-79
2022/06/06 07:25:50;;;;;;;7.80;4.20;;;17.70;86.40;;;;;;4783066;29;20795;-79
2022/06/06 07:28:21;;;;;;;5.35;3.95;;;17.90;86.00;;;;;;4802725;29;20116;-79
2022/06/06 07:31:13;;;;;;;6.05;3.95;;;18.10;86.00;;;;;;4774879;30;20063;-79
2022/06/06 07:33:59;;;;;;;5.73;3.67;;;18.20;85.20;;;;;;4806365;29;20052;-79
2022/06/06 07:37:03;;;;;;;8.27;5.35;;;18.20;85.00;;;;;;4797860;29;20486;-80
2022/06/06 07:39:44;;;;;;;9.25;4.82;;;18.10;83.80;;;;;;4814323;29;20055;-80
2022/06/06 07:42:39;;;;;;;6.30;4.28;;;17.90;83.10;;;;;;4793871;29;20063;-79
2022/06/06 07:45:22;;;;;;;5.93;4.05;;;17.90;82.90;;;;;;4793042;29;20059;-80
2022/06/06 07:48:08;;;;;;;7.15;3.80;;;17.80;82.30;;;;;;4787923;29;20055;-84
2022/06/06 07:50:47;;;;;;;5.65;3.90;;;18.00;82.70;;;;;;4804607;29;20035;-85
2022/06/06 07:53:24;;;;;;;6.72;3.40;;;18.00;81.90;;;;;;4791226;29;20514;-82
2022/06/06 07:56:32;;;;;;;3.95;2.85;;;17.90;81.80;;;;;;4799025;29;20055;-83
2022/06/06 07:59:05;;;;;;;6.45;3.05;;;17.80;81.30;;;;;;4789550;29;20062;-82
2022/06/06 08:01:45;;;;;;;4.55;2.60;;;17.80;80.60;;;;;;4784831;29;20066;-82
2022/06/06 08:04:45;;;;;;;4.45;2.13;;;17.70;79.70;;;;;;4786265;30;20472;-83
2022/06/06 08:07:30;;;;;;;4.88;2.75;;;17.60;79.70;;;;;;4772631;30;20047;-83
2022/06/06 08:10:35;;;;;;;4.30;2.47;;;17.70;80.10;;;;;;4788109;30;20075;-83
2022/06/06 08:13:35;;;;;;;4.80;1.90;;;17.70;79.00;;;;;;4796333;29;20470;-82
2022/06/06 08:16:15;;;;;;;2.88;1.20;;;17.90;79.10;;;;;;4792348;29;20051;-84
2022/06/06 08:19:01;;;;;;;2.67;1.05;;;18.00;79.20;;;;;;4803311;29;20051;-83
2022/06/06 08:21:35;;;;;;;1.75;0.75;;;18.30;78.00;;;;;;4788078;29;20141;-81
2022/06/06 08:24:08;;;;;;;1.70;0.80;;;18.40;77.40;;;;;;4788005;29;20150;-85
2022/06/06 08:26:58;;;;;;;4.22;0.82;;;18.50;76.80;;;;;;4801170;29;20043;-84
2022/06/06 08:29:26;;;;;;;2.55;0.70;;;18.50;75.70;;;;;;4792251;29;20054;-84
2022/06/06 08:31:54;;;;;;;3.55;1.08;;;18.30;76.00;;;;;;4791933;29;20051;-82
2022/06/06 08:34:21;;;;;;;2.75;1.02;;;18.20;75.70;;;;;;4805965;29;20482;-84
2022/06/06 08:37:28;;;;;;;2.65;1.30;;;18.20;75.50;;;;;;4777528;30;20052;-84
2022/06/06 08:40:33;;;;;;;3.63;1.15;;;18.20;74.90;;;;;;4771775;30;20047;-83
2022/06/06 08:43:26;;;;;;;2.30;1.38;;;18.10;74.90;;;;;;4789148;29;20094;-85
2022/06/06 08:45:57;;;;;;;2.33;1.55;;;17.90;74.60;;;;;;4787923;30;20055;-84
2022/06/06 08:48:57;;;;;;;2.58;1.48;;;17.60;75.00;;;;;;4772639;30;20074;-84
2022/06/06 08:51:52;;;;;;;3.45;1.42;;;17.50;75.50;;;;;;4787640;30;20051;-84
2022/06/06 08:54:52;;;;;;;2.75;1.48;;;17.30;75.60;;;;;;4787741;30;20055;-84
2022/06/06 08:57:41;;;;;;;4.13;1.73;;;17.10;75.90;;;;;;4802469;29;20372;-82
2022/06/06 09:00:43;;;;;;;2.67;1.40;;;17.10;76.30;;;;;;4788348;29;20078;-82
2022/06/06 09:03:35;;;;;;;3.35;0.90;;;17.40;75.70;;;;;;4787481;29;20059;-82
2022/06/06 09:06:24;;;;;;;1.25;0.77;;;17.70;75.20;;;;;;4802366;29;20074;-82
2022/06/06 09:09:32;;;;;;;2.30;0.93;;;18.10;75.10;;;;;;4788451;29;20055;-83
2022/06/06 09:12:22;;;;;;;3.10;1.13;;;18.40;72.60;;;;;;4788975;29;20059;-84
2022/06/06 09:15:19;;;;;;;1.05;0.70;;;18.40;72.10;;;;;;4788114;29;20071;-84
2022/06/06 09:18:05;;;;;;;3.40;0.50;;;18.50;72.40;;;;;;4791850;29;20498;-85
2022/06/06 09:20:41;;;;;;;1.38;0.70;;;18.80;72.70;;;;;;4799698;29;20055;-84
2022/06/06 09:23:18;;;;;;;2.60;0.40;;;19.00;72.10;;;;;;4801899;29;20583;-83
2022/06/06 09:25:52;;;;;;;1.33;0.63;;;19.40;72.20;;;;;;4786649;30;20059;-83
2022/06/06 09:28:43;;;;;;;2.88;0.60;;;19.50;71.40;;;;;;4801581;29;20104;-81
2022/06/06 09:31:16;;;;;;;1.90;0.60;;;19.70;71.40;;;;;;4786602;30;20048;-80
2022/06/06 09:34:09;;;;;;;0.77;0.50;;;19.70;70.70;;;;;;4786393;30;20055;-80
2022/06/06 09:36:51;;;;;;;0.85;0.50;;;19.70;69.00;;;;;;4757548;30;20075;-82
2022/06/06 09:39:34;;;;;;;2.42;0.50;;;19.50;67.80;;;;;;4786331;29;20839;-81
2022/06/06 09:42:17;;;;;;;1.50;0.60;;;19.20;69.00;;;;;;4790268;29;20474;-80
2022/06/06 09:45:17;;;;;;;2.97;0.60;;;19.00;69.70;;;;;;4786058;30;20058;-81
2022/06/06 09:48:31;;;;;;;2.42;0.80;;;18.90;69.20;;;;;;4786545;29;20063;-79
2022/06/06 09:51:01;;;;;;;1.60;0.60;;;18.90;69.50;;;;;;4771563;30;20075;-79
2022/06/06 10:00:27;;;;;;;1.42;0.80;;;19.20;70.60;;;;;;4804174;29;20064;-84
2022/06/06 10:03:31;;;;;;;1.67;0.70;;;19.30;70.20;;;;;;4801379;29;20548;-75
2022/06/06 10:05:59;;;;;;;2.42;0.90;;;19.20;70.00;;;;;;4785467;29;20070;-76
2022/06/06 10:08:28;;;;;;;1.35;0.50;;;19.40;70.20;;;;;;4785732;29;20047;-82
2022/06/06 10:11:01;;;;;;;2.25;0.80;;;19.70;70.30;;;;;;4784927;29;20134;-83
2022/06/06 10:13:46;;;;;;;3.15;0.90;;;20.00;69.10;;;;;;4800595;29;20052;-80
2022/06/06 10:16:19;;;;;;;1.20;0.80;;;20.40;68.40;;;;;;4785419;29;20500;-84
2022/06/06 10:19:14;;;;;;;2.00;1.00;;;20.40;67.00;;;;;;4784695;29;20047;-80
2022/06/06 10:22:07;;;;;;;2.10;0.70;;;20.40;67.10;;;;;;4794215;29;20059;-85
2022/06/06 10:25:13;;;;;;;2.42;0.85;;;20.60;67.10;;;;;;4794930;29;20741;-82
2022/06/06 10:27:40;;;;;;;3.22;1.10;;;20.70;66.30;;;;;;4805838;29;20101;-82
2022/06/06 10:30:10;;;;;;;1.58;0.98;;;20.40;64.70;;;;;;4800954;29;20039;-83
2022/06/06 10:32:46;;;;;;;3.58;1.30;;;20.00;65.40;;;;;;4756091;29;20055;-84
2022/06/06 10:35:44;;;;;;;1.92;0.88;;;19.80;66.40;;;;;;4814555;29;20054;-81
2022/06/06 10:38:29;;;;;;;3.08;1.52;;;19.90;66.70;;;;;;4799726;29;20044;-86
2022/06/06 10:40:58;;;;;;;3.38;0.93;;;19.90;66.30;;;;;;4785705;30;20131;-76
2022/06/06 10:43:50;;;;;;;2.17;0.73;;;19.80;66.10;;;;;;4777042;30;20059;-78
2022/06/06 10:46:34;;;;;;;1.65;0.95;;;19.80;66.40;;;;;;4810756;29;20058;-81
2022/06/06 10:49:29;;;;;;;2.15;0.80;;;19.60;66.80;;;;;;4799843;29;20059;-77
2022/06/06 10:52:29;;;;;;;2.75;1.17;;;19.60;66.20;;;;;;4786710;30;20474;-79
2022/06/06 10:55:35;;;;;;;2.25;1.20;;;19.80;66.40;;;;;;4787382;29;20138;-76
2022/06/06 10:58:46;;;;;;;1.67;0.80;;;20.20;66.00;;;;;;4800904;29;20495;-75
2022/06/06 11:01:34;;;;;;;2.97;1.30;;;20.30;65.20;;;;;;4789589;29;20048;-77
2022/06/06 11:04:20;;;;;;;1.70;0.90;;;20.20;65.40;;;;;;4800466;29;20059;-74
2022/06/06 11:06:56;;;;;;;1.98;1.05;;;20.00;65.90;;;;;;4804032;29;20090;-76
2022/06/06 11:09:23;;;;;;;2.17;1.20;;;19.90;66.60;;;;;;4801431;29;20051;-79
2022/06/06 11:11:53;;;;;;;2.38;1.30;;;19.80;66.50;;;;;;4788181;29;20055;-80
2022/06/06 11:14:40;;;;;;;2.85;1.60;;;19.60;67.60;;;;;;4788387;29;20108;-79
2022/06/06 11:17:28;;;;;;;3.03;1.20;;;19.50;68.40;;;;;;4776519;29;20046;-80
2022/06/06 11:20:32;;;;;;;2.45;1.30;;;19.50;68.80;;;;;;4781532;30;20461;-85
2022/06/06 11:23:28;;;;;;;2.15;1.25;;;19.70;69.20;;;;;;4794860;29;20067;-85
2022/06/06 11:26:14;;;;;;;2.42;1.15;;;19.90;69.20;;;;;;4804271;29;20051;-86
2022/06/06 11:28:47;;;;;;;2.55;1.50;;;20.10;68.90;;;;;;4804148;29;20118;-83
2022/06/06 11:31:27;;;;;;;2.10;1.00;;;20.00;68.80;;;;;;4789000;30;20057;-84
2022/06/06 11:34:17;;;;;;;2.42;1.40;;;20.30;68.90;;;;;;4804193;29;20432;-84
2022/06/06 11:37:05;;;;;;;1.88;1.05;;;20.80;68.40;;;;;;4789265;29;20134;-84
2022/06/06 11:39:53;;;;;;;1.45;0.85;;;21.00;67.50;;;;;;4788382;30;20112;-81
2022/06/06 11:42:25;;;;;;;2.35;0.93;;;21.10;67.40;;;;;;4788753;30;20062;-86
2022/06/06 11:44:52;;;;;;;;;;;21.20;67.40;;;;;;4804525;29;20096;-85
2022/06/06 11:48:00;;;;;;;1.52;0.80;;;21.20;67.20;;;;;;4788494;29;19993;-83
2022/06/06 11:50:49;;;;;;;2.08;0.90;;;21.30;66.00;;;;;;4773598;30;20078;-83
2022/06/06 11:53:34;;;;;;;1.08;0.60;;;21.30;65.70;;;;;;4788005;30;20059;-84
2022/06/06 11:56:19;;;;;;;1.08;0.60;;;21.50;65.60;;;;;;4788463;30;20059;-84
2022/06/06 11:59:13;;;;;;;1.42;0.65;;;21.40;65.50;;;;;;4789482;30;20576;-89
2022/06/06 12:02:03;;;;;;;1.38;0.68;;;21.50;65.40;;;;;;4790292;29;20058;-85
2022/06/06 12:05:14;;;;;;;1.20;0.70;;;21.30;65.10;;;;;;4823956;29;20059;-92
2022/06/06 12:08:12;;;;;;;2.10;0.70;;;21.00;65.40;;;;;;4785194;29;20105;-91
2022/06/06 12:11:18;;;;;;;1.90;0.73;;;20.40;65.80;;;;;;4790064;30;20142;-89
2022/06/06 12:14:14;;;;;;;1.77;0.80;;;19.70;67.20;;;;;;4788286;29;20097;-87
2022/06/06 12:16:54;;;;;;;1.30;0.60;;;19.40;68.50;;;;;;4797423;29;20449;-85
2022/06/06 12:19:58;;;;;;;1.13;0.55;;;19.30;69.10;;;;;;4791251;29;20153;-86
2022/06/06 12:22:44;;;;;;;1.73;0.65;;;19.20;68.90;;;;;;4788007;29;20059;-86
2022/06/06 12:25:19;;;;;;;1.85;0.63;;;19.10;69.40;;;;;;4773043;30;20043;-85
2022/06/06 12:28:06;;;;;;;1.60;0.70;;;19.40;68.70;;;;;;4808349;29;20112;-84
2022/06/06 12:30:52;;;;;;;0.73;0.57;;;19.70;67.60;;;;;;4780519;30;20051;-84
2022/06/06 12:33:43;;;;;;;1.05;0.55;;;19.70;67.20;;;;;;4811548;29;20092;-84
2022/06/06 12:36:21;;;;;;;2.03;0.70;;;19.70;67.60;;;;;;4803693;29;20055;-84
2022/06/06 12:39:01;;;;;;;1.58;0.80;;;19.40;68.50;;;;;;4804667;29;20059;-85
2022/06/06 12:41:47;;;;;;;1.88;1.00;;;19.00;69.20;;;;;;4791732;29;20082;-85
2022/06/06 12:44:26;;;;;;;2.40;1.08;;;18.50;70.00;;;;;;4794712;29;20081;-84
2022/06/06 12:46:56;;;;;;;2.38;1.20;;;18.30;70.90;;;;;;4802960;29;20047;-83
2022/06/06 12:49:35;;;;;;;3.70;1.30;;;18.10;71.70;;;;;;4801993;29;20051;-85
2022/06/06 12:52:41;;;;;;;3.28;1.35;;;17.80;72.80;;;;;;4792921;29;20112;-84
2022/06/06 12:57:44;;;;;;;1.65;0.95;;;17.40;74.60;;;;;;4794600;29;20042;-84
2022/06/06 13:00:13;;;;;;;2.78;1.10;;;17.30;74.90;;;;;;4806087;29;20054;-84
2022/06/06 13:02:58;;;;;;;1.02;0.63;;;17.30;75.10;;;;;;4788291;29;20085;-85
2022/06/06 13:05:34;;;;;;;2.33;0.88;;;17.40;75.10;;;;;;4787847;29;20112;-84
2022/06/06 13:08:05;;;;;;;2.30;0.80;;;17.60;74.70;;;;;;4787390;29;20078;-84
2022/06/06 13:10:58;;;;;;;1.17;0.80;;;17.80;74.40;;;;;;4787506;29;20050;-84
2022/06/06 13:13:46;;;;;;;1.80;0.90;;;18.10;74.10;;;;;;4804797;29;20060;-83
2022/06/06 13:16:58;;;;;;;1.55;0.82;;;18.20;73.90;;;;;;4805727;29;20070;-84
2022/06/06 13:19:53;;;;;;;1.50;0.80;;;18.30;73.40;;;;;;4773484;30;20150;-84
2022/06/06 13:23:08;;;;;;;2.30;1.15;;;18.10;73.50;;;;;;4800923;29;20108;-84
2022/06/06 13:25:38;;;;;;;1.35;0.70;;;18.00;73.70;;;;;;4770576;30;20051;-85
2022/06/06 13:28:40;;;;;;;2.15;0.73;;;18.00;73.90;;;;;;4802418;29;20062;-85
2022/06/06 13:31:10;;;;;;;1.42;0.60;;;18.10;73.70;;;;;;4784450;29;20051;-85
2022/06/06 13:34:01;;;;;;;1.88;0.63;;;18.40;73.50;;;;;;4787707;30;20052;-86
2022/06/06 13:36:53;;;;;;;1.90;0.50;;;18.80;72.60;;;;;;4802416;29;20047;-86
2022/06/06 13:39:41;;;;;;;2.57;0.60;;;19.00;71.60;;;;;;4787037;30;20058;-86
2022/06/06 13:42:41;;;;;;;1.27;0.52;;;19.00;71.30;;;;;;4786513;29;20047;-85
2022/06/06 13:45:27;;;;;;;0.80;0.30;;;19.00;71.40;;;;;;4803244;29;20104;-85
2022/06/06 13:48:08;;;;;;;1.75;0.50;;;19.10;71.50;;;;;;4788090;29;20499;-84
2022/06/06 13:51:02;;;;;;;1.15;0.43;;;19.10;71.20;;;;;;4788851;29;20057;-85
2022/06/06 13:53:42;;;;;;;2.60;0.60;;;19.00;71.00;;;;;;4803221;29;20392;-84
2022/06/06 13:56:25;;;;;;;1.38;0.50;;;18.90;71.20;;;;;;4790122;29;20051;-84
2022/06/06 13:59:10;;;;;;;0.90;0.50;;;18.90;71.60;;;;;;4793833;29;20120;-84
2022/06/06 14:02:03;;;;;;;1.52;0.35;;;18.90;71.70;;;;;;4802750;29;20043;-84
2022/06/06 14:04:48;;;;;;;0.60;0.40;;;19.00;71.80;;;;;;4793830;29;20058;-85
2022/06/06 14:07:57;;;;;;;1.13;0.47;;;19.00;71.70;;;;;;4786709;30;20114;-84
2022/06/06 14:10:58;;;;;;;2.55;0.50;;;19.00;71.60;;;;;;4790627;29;20047;-85
2022/06/06 14:13:47;;;;;;;2.03;0.60;;;18.90;71.80;;;;;;4803685;29;20048;-85
2022/06/06 14:16:30;;;;;;;1.20;0.40;;;19.00;71.90;;;;;;4768863;30;20051;-85
2022/06/06 14:19:29;;;;;;;0.77;0.40;;;18.90;72.10;;;;;;4787017;30;20051;-84
2022/06/06 14:22:05;;;;;;;1.92;0.55;;;18.70;72.50;;;;;;4794497;29;20115;-84
2022/06/06 14:24:38;;;;;;;1.63;0.80;;;18.30;73.90;;;;;;4786499;30;20096;-80